Time;durP1;ratioP1;P1;durP2;ratioP2;P2;SDS_P1;SDS_P2;PMS_P1;PMS_P2;Temp;Humidity;BMP_temperature;BMP_pressure;BME280_temperature;BME280_humidity;BME280_pressure;Samples;Min_cycle;Max_cycle;Signal;HPM_P1;HPM_P2
2022/12/08 00:01:33;;;;;;;29.80;19.17;;;;;;;;;;5031910;28;20037;-67
2022/12/08 00:04:00;;;;;;;32.33;18.80;;;;;;;;;;5030558;28;20013;-65
2022/12/08 00:09:22;;;;;;;30.08;18.83;;;;;;;;;;5012450;28;20045;-65
2022/12/08 00:11:58;;;;;;;29.98;18.10;;;;;;;;;;5012952;28;20029;-65
2022/12/08 00:14:29;;;;;;;31.98;18.48;;;;;;;;;;5012689;28;20018;-66
2022/12/08 00:16:55;;;;;;;33.97;19.95;;;;;;;;;;5013130;28;20445;-65
2022/12/08 00:19:21;;;;;;;31.20;19.17;;;;;;;;;;5013123;28;20030;-65
2022/12/08 00:21:47;;;;;;;36.72;22.20;;;;;;;;;;5012657;28;20030;-66
2022/12/08 00:24:13;;;;;;;30.42;18.63;;;;;;;;;;5012654;28;20433;-64
2022/12/08 00:26:39;;;;;;;39.60;21.27;;;;;;;;;;5012851;28;20113;-65
2022/12/08 00:29:05;;;;;;;31.08;18.00;;;;;;;;;;5012559;28;20117;-65
2022/12/08 00:31:31;;;;;;;34.45;21.58;;;;;;;;;;5012516;28;20026;-65
2022/12/08 00:33:57;;;;;;;35.65;20.48;;;;;;;;;;5012505;28;20014;-65
2022/12/08 00:36:23;;;;;;;35.70;22.15;;;;;;;;;;5011622;28;20422;-66
2022/12/08 00:38:49;;;;;;;34.90;21.65;;;;;;;;;;5012510;28;20462;-66
2022/12/08 00:41:17;;;;;;;34.40;21.30;;;;;;;;;;5012467;28;20044;-66
2022/12/08 00:43:43;;;;;;;34.33;22.70;;;;;;;;;;5012473;28;20049;-67
2022/12/08 00:46:09;;;;;;;32.72;20.60;;;;;;;;;;5012740;28;20109;-67
2022/12/08 00:48:35;;;;;;;39.30;20.42;;;;;;;;;;5012701;28;20029;-66
2022/12/08 00:51:01;;;;;;;31.70;19.95;;;;;;;;;;5011320;28;20044;-65
2022/12/08 00:53:27;;;;;;;29.42;17.90;;;;;;;;;;5012113;28;20116;-66
2022/12/08 00:55:53;;;;;;;39.35;22.08;;;;;;;;;;5012466;28;20022;-67
2022/12/08 00:58:19;;;;;;;34.17;21.80;;;;;;;;;;5011007;28;20084;-67
2022/12/08 01:00:45;;;;;;;36.85;20.10;;;;;;;;;;5011198;28;20079;-65
2022/12/08 01:03:12;;;;;;;34.40;22.92;;;;;;;;;;5010493;28;20038;-65
2022/12/08 01:05:38;;;;;;;36.53;21.60;;;;;;;;;;5012399;28;20026;-65
2022/12/08 01:08:05;;;;;;;35.35;20.90;;;;;;;;;;5011042;28;20065;-65
2022/12/08 01:10:34;;;;;;;31.77;19.83;;;;;;;;;;5012560;28;20033;-64
2022/12/08 01:13:00;;;;;;;35.20;21.15;;;;;;;;;;5012288;28;20022;-65
2022/12/08 01:15:26;;;;;;;39.60;20.33;;;;;;;;;;5012237;28;20485;-64
2022/12/08 01:17:52;;;;;;;33.53;20.48;;;;;;;;;;5012331;28;20032;-66
2022/12/08 01:20:18;;;;;;;31.67;19.58;;;;;;;;;;5012235;28;20402;-65
2022/12/08 01:22:44;;;;;;;33.60;17.17;;;;;;;;;;5010726;28;20026;-61
2022/12/08 01:25:09;;;;;;;36.42;21.58;;;;;;;;;;5012020;28;20474;-65
2022/12/08 01:27:35;;;;;;;35.28;20.73;;;;;;;;;;5010857;28;20029;-64
2022/12/08 01:30:02;;;;;;;33.47;19.80;;;;;;;;;;5010903;28;20072;-65
2022/12/08 01:32:28;;;;;;;38.33;19.85;;;;;;;;;;5012057;28;20022;-65
2022/12/08 01:34:54;;;;;;;31.02;19.90;;;;;;;;;;5010544;28;20026;-64
2022/12/08 01:37:20;;;;;;;33.17;20.25;;;;;;;;;;5010791;28;20389;-64
2022/12/08 01:39:46;;;;;;;33.05;18.77;;;;;;;;;;5011959;28;20030;-66
2022/12/08 01:42:21;;;;;;;30.58;18.85;;;;;;;;;;5010703;28;20030;-64
2022/12/08 01:44:52;;;;;;;30.58;17.67;;;;;;;;;;5010525;28;20048;-63
2022/12/08 01:47:18;;;;;;;33.75;19.05;;;;;;;;;;5011953;28;20030;-63
2022/12/08 01:49:44;;;;;;;32.53;20.23;;;;;;;;;;5011921;28;20474;-64
2022/12/08 01:52:13;;;;;;;31.40;18.83;;;;;;;;;;5011975;28;20038;-63
2022/12/08 01:54:41;;;;;;;31.40;18.70;;;;;;;;;;5012012;28;20018;-64
2022/12/08 01:57:20;;;;;;;32.92;16.92;;;;;;;;;;5010828;28;20505;-64
2022/12/08 01:59:49;;;;;;;30.25;19.38;;;;;;;;;;5012299;28;20041;-63
2022/12/08 02:02:15;;;;;;;26.40;17.73;;;;;;;;;;5012072;28;20046;-64
2022/12/08 02:04:41;;;;;;;31.77;19.15;;;;;;;;;;5010904;28;20030;-63
2022/12/08 02:07:08;;;;;;;26.25;16.63;;;;;;;;;;5012488;28;20072;-63
2022/12/08 02:09:34;;;;;;;27.83;17.25;;;;;;;;;;5010715;28;20029;-64
2022/12/08 02:12:00;;;;;;;30.88;17.65;;;;;;;;;;5010538;28;20026;-63
2022/12/08 02:14:26;;;;;;;28.13;16.35;;;;;;;;;;5011794;28;20018;-63
2022/12/08 02:16:59;;;;;;;32.42;17.95;;;;;;;;;;5014935;28;20033;-64
2022/12/08 02:19:25;;;;;;;28.88;17.02;;;;;;;;;;5015435;28;20112;-66
2022/12/08 02:21:59;;;;;;;30.92;17.90;;;;;;;;;;5013988;28;20109;-65
2022/12/08 02:24:31;;;;;;;30.52;17.50;;;;;;;;;;5013896;28;20041;-65
2022/12/08 02:27:12;;;;;;;25.70;16.23;;;;;;;;;;5015225;28;20118;-65
2022/12/08 02:29:44;;;;;;;27.58;17.20;;;;;;;;;;5014900;28;20513;-64
2022/12/08 02:32:13;;;;;;;30.38;17.85;;;;;;;;;;5013621;28;20049;-64
2022/12/08 02:34:58;;;;;;;28.08;17.58;;;;;;;;;;5014564;28;20026;-64
2022/12/08 02:37:36;;;;;;;31.95;18.25;;;;;;;;;;5013718;28;20028;-64
2022/12/08 02:40:08;;;;;;;27.75;17.10;;;;;;;;;;5013407;28;20433;-65
2022/12/08 02:42:34;;;;;;;27.98;16.55;;;;;;;;;;5013582;28;20044;-65
2022/12/08 02:45:03;;;;;;;27.77;16.80;;;;;;;;;;5014750;28;20022;-64
2022/12/08 02:47:31;;;;;;;32.63;17.25;;;;;;;;;;5013563;28;20029;-64
2022/12/08 02:49:58;;;;;;;27.55;17.20;;;;;;;;;;5013479;28;20072;-65
2022/12/08 02:52:24;;;;;;;28.83;17.15;;;;;;;;;;5013855;28;20049;-64
2022/12/08 02:54:52;;;;;;;26.55;14.43;;;;;;;;;;5015281;28;20449;-65
2022/12/08 02:57:18;;;;;;;;;;;;;;;;;;5014039;28;20033;-65
2022/12/08 02:59:47;;;;;;;26.30;14.57;;;;;;;;;;5014607;28;19909;-65
2022/12/08 03:02:22;;;;;;;28.35;17.02;;;;;;;;;;5014421;28;20072;-65
2022/12/08 03:04:51;;;;;;;28.50;16.95;;;;;;;;;;5013146;28;20026;-65
2022/12/08 03:07:27;;;;;;;27.75;16.23;;;;;;;;;;5014456;28;20129;-65
2022/12/08 03:09:59;;;;;;;25.42;16.70;;;;;;;;;;5013033;28;20060;-63
2022/12/08 03:12:35;;;;;;;29.27;16.20;;;;;;;;;;5014365;28;20076;-65
2022/12/08 03:15:05;;;;;;;27.52;17.13;;;;;;;;;;5014145;28;20021;-64
2022/12/08 03:17:31;;;;;;;27.15;16.60;;;;;;;;;;5014225;28;20098;-65
2022/12/08 03:19:59;;;;;;;30.40;18.05;;;;;;;;;;5013037;28;20022;-64
2022/12/08 03:22:27;;;;;;;28.95;18.15;;;;;;;;;;5014108;28;20030;-64
2022/12/08 03:24:53;;;;;;;31.95;18.92;;;;;;;;;;5014029;28;20018;-64
2022/12/08 03:27:21;;;;;;;32.38;19.60;;;;;;;;;;5011995;28;20030;-57
2022/12/08 03:29:48;;;;;;;32.47;19.13;;;;;;;;;;5013851;28;20128;-65
2022/12/08 03:32:34;;;;;;;31.85;20.10;;;;;;;;;;5012403;28;20277;-66
2022/12/08 03:35:01;;;;;;;28.83;16.30;;;;;;;;;;5012306;28;20018;-66
2022/12/08 03:37:28;;;;;;;33.67;21.52;;;;;;;;;;5013889;28;20033;-65
2022/12/08 03:39:54;;;;;;;32.17;20.45;;;;;;;;;;5013858;28;20022;-66
2022/12/08 03:42:20;;;;;;;35.75;20.85;;;;;;;;;;5013619;28;20364;-65
2022/12/08 03:44:46;;;;;;;34.83;20.85;;;;;;;;;;5013649;28;20105;-65
2022/12/08 03:47:11;;;;;;;26.48;17.45;;;;;;;;;;5013677;28;20026;-65
2022/12/08 03:49:38;;;;;;;31.63;20.38;;;;;;;;;;5013574;28;20026;-64
2022/12/08 03:52:04;;;;;;;33.00;18.52;;;;;;;;;;5013169;28;20083;-66
2022/12/08 03:54:30;;;;;;;35.03;22.77;;;;;;;;;;5013258;28;20101;-66
2022/12/08 03:56:56;;;;;;;32.65;21.52;;;;;;;;;;5013622;28;20078;-66
2022/12/08 03:59:22;;;;;;;33.15;21.23;;;;;;;;;;5013473;28;20446;-63
2022/12/08 04:01:48;;;;;;;34.15;23.10;;;;;;;;;;5012005;28;20061;-66
2022/12/08 04:04:14;;;;;;;27.50;16.00;;;;;;;;;;5011882;28;20033;-65
2022/12/08 04:06:39;;;;;;;32.40;21.02;;;;;;;;;;5013266;28;20490;-64
2022/12/08 04:09:05;;;;;;;33.97;21.52;;;;;;;;;;5011864;28;20026;-64
2022/12/08 04:11:31;;;;;;;30.35;21.45;;;;;;;;;;5012146;28;20479;-65
2022/12/08 04:13:57;;;;;;;32.92;22.17;;;;;;;;;;5011806;28;20060;-65
2022/12/08 04:16:25;;;;;;;28.92;18.63;;;;;;;;;;5012261;28;20022;-67
2022/12/08 04:18:51;;;;;;;32.67;23.35;;;;;;;;;;5011749;28;20029;-65
2022/12/08 04:21:18;;;;;;;34.03;22.40;;;;;;;;;;5013121;28;20087;-66
2022/12/08 04:23:44;;;;;;;36.25;25.23;;;;;;;;;;5011587;28;20108;-66
2022/12/08 04:26:12;;;;;;;31.75;23.88;;;;;;;;;;5013280;28;20097;-66
2022/12/08 04:28:38;;;;;;;32.83;25.17;;;;;;;;;;5011794;28;20172;-64
2022/12/08 04:31:04;;;;;;;37.65;27.60;;;;;;;;;;5018400;28;20018;-66
2022/12/08 04:33:30;;;;;;;35.95;27.67;;;;;;;;;;5030737;28;20025;-66
2022/12/08 04:35:57;;;;;;;38.92;30.90;;;;;;;;;;5032588;28;20481;-66
2022/12/08 04:38:23;;;;;;;37.60;29.63;;;;;;;;;;5030738;28;20025;-66
2022/12/08 04:40:49;;;;;;;36.67;28.48;;;;;;;;;;5032357;28;20440;-66
2022/12/08 04:43:15;;;;;;;40.45;33.22;;;;;;;;;;5031819;28;20036;-66
2022/12/08 04:45:41;;;;;;;38.97;31.30;;;;;;;;;;5031049;28;20102;-66
2022/12/08 04:48:08;;;;;;;42.08;32.10;;;;;;;;;;5032164;28;20032;-66
2022/12/08 04:50:34;;;;;;;40.65;29.27;;;;;;;;;;5032230;28;20432;-65
2022/12/08 04:53:00;;;;;;;39.65;30.75;;;;;;;;;;5030353;28;20029;-64
2022/12/08 04:55:26;;;;;;;45.92;32.10;;;;;;;;;;5030835;28;20444;-65
2022/12/08 04:57:52;;;;;;;39.00;30.92;;;;;;;;;;5031137;28;20032;-64
2022/12/08 05:00:18;;;;;;;36.72;29.05;;;;;;;;;;5031324;28;20366;-64
2022/12/08 05:02:44;;;;;;;47.20;33.38;;;;;;;;;;5032431;28;20029;-64
2022/12/08 05:05:10;;;;;;;41.95;34.30;;;;;;;;;;5032110;28;20025;-66
2022/12/08 05:07:37;;;;;;;41.47;33.97;;;;;;;;;;5031907;28;20045;-63
2022/12/08 05:10:03;;;;;;;43.90;34.78;;;;;;;;;;5032242;28;20029;-64
2022/12/08 05:12:29;;;;;;;40.55;30.40;;;;;;;;;;5031994;28;20014;-64
2022/12/08 05:14:55;;;;;;;44.78;33.38;;;;;;;;;;5030474;28;20147;-64
2022/12/08 05:17:21;;;;;;;40.20;32.42;;;;;;;;;;5031884;28;20141;-64
2022/12/08 05:19:47;;;;;;;46.42;35.53;;;;;;;;;;5030656;28;20029;-65
2022/12/08 05:22:13;;;;;;;49.05;38.00;;;;;;;;;;5031289;28;20032;-66
2022/12/08 05:24:39;;;;;;;48.35;39.15;;;;;;;;;;5030034;28;20120;-65
2022/12/08 05:27:05;;;;;;;49.78;42.53;;;;;;;;;;5030621;28;20047;-65
2022/12/08 05:29:31;;;;;;;54.85;43.45;;;;;;;;;;5031842;28;20026;-66
2022/12/08 05:31:57;;;;;;;45.72;40.95;;;;;;;;;;5031418;28;20520;-65
2022/12/08 05:34:23;;;;;;;48.67;43.47;;;;;;;;;;5031456;28;20026;-66
2022/12/08 05:36:49;;;;;;;44.05;39.58;;;;;;;;;;5030253;28;20026;-66
2022/12/08 05:39:15;;;;;;;47.95;42.75;;;;;;;;;;5030362;28;20493;-66
2022/12/08 05:41:41;;;;;;;49.75;44.28;;;;;;;;;;5030002;28;20515;-66
2022/12/08 05:44:07;;;;;;;47.58;42.38;;;;;;;;;;5030942;28;20079;-66
2022/12/08 05:46:34;;;;;;;49.92;43.25;;;;;;;;;;5029937;28;20030;-65
2022/12/08 05:49:00;;;;;;;46.72;41.55;;;;;;;;;;5029819;28;20482;-66
2022/12/08 05:51:26;;;;;;;50.30;43.33;;;;;;;;;;5033253;28;20129;-65
2022/12/08 05:53:53;;;;;;;48.53;40.72;;;;;;;;;;5035811;23;20549;-65
2022/12/08 05:56:19;;;;;;;52.90;42.20;;;;;;;;;;5013145;28;20460;-65
2022/12/08 05:58:45;;;;;;;49.80;40.53;;;;;;;;;;5014970;28;20026;-65
2022/12/08 06:01:21;;;;;;;45.03;37.10;;;;;;;;;;5014764;28;20038;-65
2022/12/08 06:03:47;;;;;;;45.78;35.90;;;;;;;;;;5000618;28;20030;-64
2022/12/08 06:06:13;;;;;;;45.33;39.35;;;;;;;;;;4995398;28;20386;-65
2022/12/08 06:08:39;;;;;;;44.72;40.03;;;;;;;;;;4993876;28;20022;-65
2022/12/08 06:11:05;;;;;;;43.97;35.67;;;;;;;;;;4998921;28;20522;-66
2022/12/08 06:13:31;;;;;;;47.13;38.17;;;;;;;;;;5017726;28;20113;-65
2022/12/08 06:16:02;;;;;;;45.22;37.15;;;;;;;;;;5014012;28;20076;-66
2022/12/08 06:18:28;;;;;;;44.08;37.30;;;;;;;;;;5013689;28;20057;-63
2022/12/08 06:21:01;;;;;;;46.55;38.38;;;;;;;;;;5012421;28;20040;-66
2022/12/08 06:23:27;;;;;;;48.13;40.33;;;;;;;;;;5013627;28;20183;-66
2022/12/08 06:25:53;;;;;;;40.80;34.10;;;;;;;;;;5013582;28;20065;-64
2022/12/08 06:28:19;;;;;;;42.47;34.53;;;;;;;;;;5006368;28;20031;-66
2022/12/08 06:30:45;;;;;;;44.35;36.80;;;;;;;;;;4992615;28;20497;-66
2022/12/08 06:33:11;;;;;;;41.42;34.88;;;;;;;;;;4993898;28;20069;-65
2022/12/08 06:35:37;;;;;;;38.67;34.35;;;;;;;;;;4992271;28;20068;-65
2022/12/08 06:38:03;;;;;;;40.03;35.95;;;;;;;;;;4993646;28;20376;-64
2022/12/08 06:40:29;;;;;;;40.83;35.67;;;;;;;;;;4993892;28;20033;-64
2022/12/08 06:42:55;;;;;;;42.28;36.85;;;;;;;;;;4993852;28;20736;-62
2022/12/08 06:45:21;;;;;;;40.50;36.40;;;;;;;;;;4993331;28;20030;-65
2022/12/08 06:47:47;;;;;;;40.80;35.88;;;;;;;;;;4994008;28;20061;-64
2022/12/08 06:50:13;;;;;;;42.13;37.03;;;;;;;;;;4992274;28;20030;-64
2022/12/08 06:52:40;;;;;;;41.80;35.90;;;;;;;;;;4992588;28;20034;-63
2022/12/08 06:55:07;;;;;;;43.75;39.25;;;;;;;;;;4991753;28;20022;-66
2022/12/08 06:57:36;;;;;;;42.63;38.13;;;;;;;;;;4993523;28;20088;-64
2022/12/08 07:00:02;;;;;;;42.78;38.38;;;;;;;;;;4992449;28;20379;-65
2022/12/08 07:02:28;;;;;;;44.22;38.03;;;;;;;;;;4994915;28;20074;-65
2022/12/08 07:04:54;;;;;;;45.00;40.20;;;;;;;;;;4992679;28;20039;-63
2022/12/08 07:07:20;;;;;;;44.20;39.28;;;;;;;;;;4994023;28;20375;-63
2022/12/08 07:09:46;;;;;;;43.63;39.13;;;;;;;;;;4992356;28;20034;-63
2022/12/08 07:12:12;;;;;;;48.63;43.78;;;;;;;;;;4993579;28;20113;-64
2022/12/08 07:14:38;;;;;;;49.08;44.05;;;;;;;;;;4993822;28;20026;-62
2022/12/08 07:17:04;;;;;;;48.50;43.28;;;;;;;;;;4993298;28;20144;-64
2022/12/08 07:19:30;;;;;;;49.00;43.95;;;;;;;;;;4993973;28;20033;-63
2022/12/08 07:21:56;;;;;;;46.20;41.60;;;;;;;;;;4992658;28;20383;-64
2022/12/08 07:24:22;;;;;;;47.20;42.58;;;;;;;;;;4993361;28;20030;-66
2022/12/08 07:26:48;;;;;;;45.60;41.15;;;;;;;;;;4993928;28;20034;-64
2022/12/08 07:29:14;;;;;;;46.72;42.03;;;;;;;;;;4992216;28;20554;-65
2022/12/08 07:31:40;;;;;;;46.03;41.40;;;;;;;;;;4994047;28;20090;-64
2022/12/08 07:34:06;;;;;;;44.45;40.22;;;;;;;;;;4993864;28;20033;-64
2022/12/08 07:36:32;;;;;;;47.47;42.65;;;;;;;;;;4993744;28;20053;-65
2022/12/08 07:38:58;;;;;;;46.20;41.70;;;;;;;;;;4993905;28;20027;-64
2022/12/08 07:41:25;;;;;;;42.10;38.30;;;;;;;;;;4993821;28;20045;-65
2022/12/08 07:43:52;;;;;;;41.00;37.00;;;;;;;;;;4994448;28;20026;-64
2022/12/08 07:46:19;;;;;;;43.22;38.88;;;;;;;;;;4992056;28;20038;-65
2022/12/08 07:48:45;;;;;;;36.63;33.45;;;;;;;;;;4993625;28;20030;-65
2022/12/08 07:51:12;;;;;;;39.35;35.72;;;;;;;;;;4993109;28;20117;-68
2022/12/08 07:53:42;;;;;;;42.90;38.92;;;;;;;;;;4991705;28;20042;-67
2022/12/08 07:56:09;;;;;;;42.00;38.03;;;;;;;;;;4992646;28;20033;-69
2022/12/08 07:58:35;;;;;;;41.63;37.78;;;;;;;;;;4993531;28;20391;-66
2022/12/08 08:01:01;;;;;;;43.72;39.08;;;;;;;;;;4993056;28;20509;-61
2022/12/08 08:03:27;;;;;;;43.00;39.05;;;;;;;;;;4992061;28;20034;-61
2022/12/08 08:05:53;;;;;;;42.78;38.60;;;;;;;;;;4992662;28;20080;-62
2022/12/08 08:08:19;;;;;;;42.20;38.20;;;;;;;;;;4992475;28;20030;-57
2022/12/08 08:10:46;;;;;;;42.47;38.40;;;;;;;;;;4991261;28;20026;-62
2022/12/08 08:13:12;;;;;;;42.22;37.83;;;;;;;;;;4991656;28;20038;-61
2022/12/08 08:15:39;;;;;;;41.28;37.42;;;;;;;;;;4992300;28;20026;-60
2022/12/08 08:18:05;;;;;;;41.50;37.72;;;;;;;;;;4992280;28;20026;-61
2022/12/08 08:20:31;;;;;;;41.85;37.70;;;;;;;;;;4992434;28;20034;-65
2022/12/08 08:22:57;;;;;;;40.90;37.10;;;;;;;;;;4992609;28;20076;-67
2022/12/08 08:25:23;;;;;;;39.20;35.60;;;;;;;;;;4992312;28;20058;-67
2022/12/08 08:27:49;;;;;;;39.75;36.15;;;;;;;;;;4992125;28;20026;-67
2022/12/08 08:30:16;;;;;;;40.53;36.65;;;;;;;;;;4992241;28;20438;-65
2022/12/08 08:32:42;;;;;;;39.63;36.10;;;;;;;;;;4992202;28;20023;-65
2022/12/08 08:35:09;;;;;;;35.80;32.50;;;;;;;;;;4990509;28;20530;-65
2022/12/08 08:37:35;;;;;;;36.33;32.90;;;;;;;;;;5000470;28;20085;-65
2022/12/08 08:40:01;;;;;;;37.85;34.35;;;;;;;;;;4995969;28;20038;-65
2022/12/08 08:42:27;;;;;;;38.22;34.72;;;;;;;;;;4997432;28;20084;-65
2022/12/08 08:44:53;;;;;;;37.67;34.25;;;;;;;;;;4994161;28;20053;-65
2022/12/08 08:47:19;;;;;;;36.65;33.35;;;;;;;;;;4991870;28;20102;-65
2022/12/08 08:49:46;;;;;;;35.22;32.08;;;;;;;;;;4991936;28;20038;-64
2022/12/08 08:52:12;;;;;;;35.83;32.53;;;;;;;;;;4991898;28;20122;-65
2022/12/08 08:54:38;;;;;;;35.63;32.50;;;;;;;;;;4993729;28;20026;-65
2022/12/08 08:57:07;;;;;;;35.10;32.00;;;;;;;;;;4993416;28;20494;-66
2022/12/08 08:59:33;;;;;;;35.25;32.10;;;;;;;;;;4992919;28;20026;-65
2022/12/08 09:01:59;;;;;;;36.55;33.25;;;;;;;;;;4992615;28;20022;-64
2022/12/08 09:04:26;;;;;;;35.22;32.08;;;;;;;;;;4991771;28;20030;-66
2022/12/08 09:06:52;;;;;;;35.65;32.45;;;;;;;;;;4992471;28;20030;-65
2022/12/08 09:09:18;;;;;;;36.92;33.53;;;;;;;;;;4991931;28;20056;-64
2022/12/08 09:11:44;;;;;;;35.88;32.67;;;;;;;;;;4992048;28;20050;-64
2022/12/08 09:14:16;;;;;;;37.58;34.08;;;;;;;;;;4993220;28;20033;-65
2022/12/08 09:16:42;;;;;;;38.03;34.67;;;;;;;;;;4991346;28;20026;-63
2022/12/08 09:19:09;;;;;;;38.03;34.70;;;;;;;;;;4991057;28;20030;-59
2022/12/08 09:21:35;;;;;;;37.20;34.00;;;;;;;;;;4990598;28;20030;-64
2022/12/08 09:24:01;;;;;;;43.63;34.30;;;;;;;;;;4991806;28;20034;-66
2022/12/08 09:26:28;;;;;;;37.47;34.13;;;;;;;;;;4988437;28;20061;-65
2022/12/08 09:28:54;;;;;;;35.70;32.55;;;;;;;;;;4991310;28;20023;-65
2022/12/08 09:31:21;;;;;;;34.92;31.77;;;;;;;;;;4991810;28;20228;-65
2022/12/08 09:33:47;;;;;;;36.70;33.38;;;;;;;;;;4991735;28;20098;-64
2022/12/08 09:36:13;;;;;;;33.92;30.83;;;;;;;;;;4992160;28;20023;-63
2022/12/08 09:38:40;;;;;;;34.03;30.95;;;;;;;;;;4991590;28;20546;-64
2022/12/08 09:41:32;;;;;;;32.30;29.33;;;;;;;;;;4992617;28;20033;-64
2022/12/08 09:44:07;;;;;;;32.15;29.08;;;;;;;;;;4988812;28;20048;-65
2022/12/08 09:46:33;;;;;;;32.03;29.02;;;;;;;;;;4991513;28;20554;-64
2022/12/08 09:49:00;;;;;;;32.70;29.70;;;;;;;;;;4991488;28;20105;-64
2022/12/08 09:51:30;;;;;;;31.23;28.38;;;;;;;;;;4992261;28;20042;-65
2022/12/08 09:53:59;;;;;;;32.08;29.20;;;;;;;;;;4991191;28;20100;-64
2022/12/08 09:56:30;;;;;;;31.33;28.45;;;;;;;;;;4991549;28;20027;-64
2022/12/08 09:58:57;;;;;;;30.67;27.88;;;;;;;;;;4992134;28;20038;-64
2022/12/08 10:01:27;;;;;;;31.33;28.42;;;;;;;;;;4991440;28;20037;-61
2022/12/08 10:03:54;;;;;;;32.13;29.13;;;;;;;;;;4990939;28;20034;-60
2022/12/08 10:06:35;;;;;;;32.95;29.92;;;;;;;;;;4991300;28;20461;-64
2022/12/08 10:09:20;;;;;;;32.38;29.35;;;;;;;;;;4991222;28;20459;-65
2022/12/08 10:11:49;;;;;;;31.75;28.75;;;;;;;;;;4991822;28;20153;-62
2022/12/08 10:14:19;;;;;;;32.33;29.25;;;;;;;;;;4989754;28;20430;-64
2022/12/08 10:16:47;;;;;;;30.88;27.80;;;;;;;;;;4991028;28;20069;-64
2022/12/08 10:19:17;;;;;;;30.20;27.40;;;;;;;;;;4991286;28;20030;-64
2022/12/08 10:21:44;;;;;;;29.42;26.52;;;;;;;;;;4991158;28;20084;-64
2022/12/08 10:24:18;;;;;;;28.42;25.73;;;;;;;;;;4990608;28;20092;-65
2022/12/08 10:26:45;;;;;;;30.23;27.40;;;;;;;;;;4990226;28;20022;-64
2022/12/08 10:29:14;;;;;;;29.65;26.75;;;;;;;;;;4991080;28;20056;-63
2022/12/08 10:31:40;;;;;;;28.23;25.35;;;;;;;;;;4991071;28;20496;-65
2022/12/08 10:34:16;;;;;;;26.15;23.70;;;;;;;;;;4990394;28;20026;-64
2022/12/08 10:36:48;;;;;;;28.48;25.77;;;;;;;;;;4991582;28;20019;-64
2022/12/08 10:39:33;;;;;;;28.70;26.00;;;;;;;;;;4993971;28;20475;-64
2022/12/08 10:42:14;;;;;;;29.10;26.20;;;;;;;;;;4647171;28;10000025;-64
2022/12/08 10:45:07;;;;;;;28.88;26.08;;;;;;;;;;4990363;28;20084;-64
2022/12/08 10:47:35;;;;;;;29.50;26.63;;;;;;;;;;4977556;28;20038;-65
2022/12/08 10:50:19;;;;;;;28.52;25.83;;;;;;;;;;5006158;28;20034;-65
2022/12/08 10:52:46;;;;;;;28.65;25.95;;;;;;;;;;4991182;28;20042;-64
2022/12/08 10:55:19;;;;;;;28.90;26.20;;;;;;;;;;4982294;28;20027;-65
2022/12/08 10:57:47;;;;;;;27.33;24.73;;;;;;;;;;4971953;28;20466;-65
2022/12/08 11:00:21;;;;;;;27.58;24.98;;;;;;;;;;4989695;28;20308;-64
2022/12/08 11:02:54;;;;;;;28.98;26.23;;;;;;;;;;4991123;28;20078;-64
2022/12/08 11:05:21;;;;;;;26.17;23.63;;;;;;;;;;4990677;28;20022;-62
2022/12/08 11:07:49;;;;;;;26.58;24.08;;;;;;;;;;4989974;28;20512;-64
2022/12/08 11:10:17;;;;;;;24.25;21.80;;;;;;;;;;4990190;28;20396;-64
2022/12/08 11:12:43;;;;;;;25.42;23.02;;;;;;;;;;4990242;28;20023;-64
2022/12/08 11:15:14;;;;;;;26.02;23.50;;;;;;;;;;4989498;28;20061;-64
2022/12/08 11:17:40;;;;;;;23.95;21.58;;;;;;;;;;4971575;28;20306;-64
2022/12/08 11:20:09;;;;;;;24.52;22.08;;;;;;;;;;4971635;28;20027;-61
2022/12/08 11:22:38;;;;;;;24.45;21.80;;;;;;;;;;4971704;28;20546;-64
2022/12/08 11:25:10;;;;;;;25.38;23.00;;;;;;;;;;4972494;28;20105;-65
2022/12/08 11:27:38;;;;;;;25.63;23.23;;;;;;;;;;4971167;28;20400;-64
2022/12/08 11:30:12;;;;;;;22.90;20.50;;;;;;;;;;4970599;28;20476;-65
2022/12/08 11:32:40;;;;;;;23.10;20.70;;;;;;;;;;4972080;28;20038;-65
2022/12/08 11:35:06;;;;;;;23.80;21.52;;;;;;;;;;4971880;28;20106;-65
2022/12/08 11:37:36;;;;;;;23.70;21.30;;;;;;;;;;4973733;28;20114;-64
2022/12/08 11:40:05;;;;;;;25.15;22.77;;;;;;;;;;4973437;28;20033;-64
2022/12/08 11:42:33;;;;;;;24.92;22.42;;;;;;;;;;4634662;28;9999984;-64
2022/12/08 11:45:03;;;;;;;25.45;22.92;;;;;;;;;;4989459;28;20171;-66
2022/12/08 11:47:43;;;;;;;23.55;21.25;;;;;;;;;;4989547;28;20034;-66
2022/12/08 11:50:21;;;;;;;23.17;20.75;;;;;;;;;;4991246;28;20082;-65
2022/12/08 11:52:49;;;;;;;23.88;21.35;;;;;;;;;;4992934;28;20084;-66
2022/12/08 11:55:30;;;;;;;24.85;21.67;;;;;;;;;;4992445;28;20376;-66
2022/12/08 11:57:59;;;;;;;22.55;20.25;;;;;;;;;;4991737;28;20030;-66
2022/12/08 12:00:25;;;;;;;24.00;21.60;;;;;;;;;;4992842;28;20022;-66
2022/12/08 12:02:56;;;;;;;23.88;21.20;;;;;;;;;;4992761;28;20508;-64
2022/12/08 12:05:31;;;;;;;24.45;22.05;;;;;;;;;;4992060;28;20101;-66
2022/12/08 12:08:00;;;;;;;23.33;20.85;;;;;;;;;;4992276;28;20037;-65
2022/12/08 12:10:26;;;;;;;24.40;21.80;;;;;;;;;;4994975;28;20148;-67
2022/12/08 12:12:52;;;;;;;23.52;20.95;;;;;;;;;;4994423;28;20034;-66
2022/12/08 12:15:27;;;;;;;23.00;20.70;;;;;;;;;;4994838;28;20101;-67
2022/12/08 12:17:53;;;;;;;23.73;21.20;;;;;;;;;;4974558;28;20050;-65
2022/12/08 12:20:19;;;;;;;23.98;21.55;;;;;;;;;;4973112;28;20117;-67
2022/12/08 12:22:48;;;;;;;24.60;22.02;;;;;;;;;;4971375;28;20022;-66
2022/12/08 12:25:14;;;;;;;;;;;;;;;;;;4975899;28;20089;-64
2022/12/08 12:27:40;;;;;;;23.88;21.48;;;;;;;;;;4971278;28;19906;-65
2022/12/08 12:30:08;;;;;;;22.95;20.55;;;;;;;;;;4638781;28;10000169;-64
2022/12/08 12:32:43;;;;;;;23.15;20.70;;;;;;;;;;4989106;28;20054;-63
2022/12/08 12:35:15;;;;;;;23.10;20.77;;;;;;;;;;4988539;28;20026;-64
2022/12/08 12:37:42;;;;;;;22.08;19.77;;;;;;;;;;4989222;28;20110;-63
2022/12/08 12:40:16;;;;;;;23.80;21.30;;;;;;;;;;4989091;28;20033;-65
2022/12/08 12:42:44;;;;;;;24.88;22.27;;;;;;;;;;4988472;28;20498;-64
2022/12/08 12:45:16;;;;;;;22.48;20.10;;;;;;;;;;4988494;28;20494;-64
2022/12/08 12:47:49;;;;;;;21.17;18.83;;;;;;;;;;4987652;28;20380;-64
2022/12/08 12:50:45;;;;;;;22.17;19.80;;;;;;;;;;4988890;28;20037;-64
2022/12/08 12:53:17;;;;;;;22.23;19.23;;;;;;;;;;4979057;28;20070;-65
2022/12/08 12:55:49;;;;;;;21.70;19.50;;;;;;;;;;4988616;28;20066;-65
2022/12/08 12:58:21;;;;;;;22.10;19.80;;;;;;;;;;4988537;28;20034;-65
2022/12/08 13:00:47;;;;;;;21.08;18.77;;;;;;;;;;4988317;28;20041;-64
2022/12/08 13:03:15;;;;;;;21.00;18.88;;;;;;;;;;4988035;28;20092;-64
2022/12/08 13:05:50;;;;;;;22.92;20.63;;;;;;;;;;4988245;28;20105;-64
2022/12/08 13:08:20;;;;;;;21.85;19.65;;;;;;;;;;4988765;28;20408;-64
2022/12/08 13:11:08;;;;;;;20.92;18.77;;;;;;;;;;4990023;28;20026;-61
2022/12/08 13:13:36;;;;;;;20.10;17.73;;;;;;;;;;4990814;28;20109;-64
2022/12/08 13:16:02;;;;;;;19.90;17.30;;;;;;;;;;4991097;28;20030;-64
2022/12/08 13:18:28;;;;;;;19.58;17.05;;;;;;;;;;4991540;28;20514;-64
2022/12/08 13:20:58;;;;;;;20.02;17.92;;;;;;;;;;4990959;28;20383;-64
2022/12/08 13:23:25;;;;;;;19.48;17.25;;;;;;;;;;4989183;28;20089;-64
2022/12/08 13:25:52;;;;;;;18.95;15.48;;;;;;;;;;4990946;28;20510;-63
2022/12/08 13:28:23;;;;;;;18.42;16.17;;;;;;;;;;4991324;28;20487;-64
2022/12/08 13:30:50;;;;;;;19.77;16.27;;;;;;;;;;4990982;28;20037;-64
2022/12/08 13:33:18;;;;;;;19.75;17.08;;;;;;;;;;4990587;28;20026;-62
2022/12/08 13:35:47;;;;;;;18.98;15.57;;;;;;;;;;4643727;28;10000506;-62
2022/12/08 13:38:17;;;;;;;18.23;14.10;;;;;;;;;;4988194;28;20042;-65
2022/12/08 13:40:44;;;;;;;19.08;13.70;;;;;;;;;;4988188;28;20486;-64
2022/12/08 13:43:19;;;;;;;19.60;14.18;;;;;;;;;;4988887;28;20542;-64
2022/12/08 13:45:46;;;;;;;19.42;15.48;;;;;;;;;;4989060;28;20314;-64
2022/12/08 13:48:24;;;;;;;20.05;13.60;;;;;;;;;;4989960;28;20030;-64
2022/12/08 13:51:06;;;;;;;19.05;13.45;;;;;;;;;;4990318;28;20207;-64
2022/12/08 13:53:39;;;;;;;19.13;13.85;;;;;;;;;;4990240;28;20062;-65
2022/12/08 13:56:06;;;;;;;19.00;13.60;;;;;;;;;;4990448;28;20026;-64
2022/12/08 13:58:34;;;;;;;19.92;13.50;;;;;;;;;;4991276;28;20034;-68
2022/12/08 14:01:12;;;;;;;19.17;14.17;;;;;;;;;;4990387;28;20129;-63
2022/12/08 14:03:47;;;;;;;18.63;11.95;;;;;;;;;;4989949;28;20026;-62
2022/12/08 14:06:14;;;;;;;21.80;12.52;;;;;;;;;;4989221;28;20165;-63
2022/12/08 14:08:43;;;;;;;22.50;13.23;;;;;;;;;;4990898;28;20587;-64
2022/12/08 14:11:09;;;;;;;;;;;;;;;;;;4991573;28;20014;-64
2022/12/08 14:13:35;;;;;;;19.27;13.45;;;;;;;;;;4993104;28;19906;-64
2022/12/08 14:16:01;;;;;;;19.30;13.05;;;;;;;;;;4994321;28;20034;-65
2022/12/08 14:18:29;;;;;;;18.90;12.00;;;;;;;;;;4994424;28;20023;-63
2022/12/08 14:21:03;;;;;;;17.57;11.30;;;;;;;;;;4995039;28;20061;-65
2022/12/08 14:23:29;;;;;;;19.38;12.07;;;;;;;;;;4993747;28;20524;-65
2022/12/08 14:25:55;;;;;;;20.17;12.77;;;;;;;;;;4993288;28;20038;-65
2022/12/08 14:28:22;;;;;;;20.17;12.98;;;;;;;;;;4991501;28;20378;-62